createdAt,value
2022-08-25T00:01:19.755Z,25.57
2022-08-25T00:03:47.302Z,25.51
2022-08-25T00:06:16.060Z,25.30
2022-08-25T00:08:43.240Z,25.14
2022-08-25T00:11:16.942Z,25.16
2022-08-25T00:13:47.445Z,25.07
2022-08-25T00:16:18.467Z,25.10
2022-08-25T00:18:49.301Z,25.05
2022-08-25T00:21:16.348Z,25.04
2022-08-25T00:23:43.958Z,24.97
2022-08-25T00:26:12.273Z,25.04
2022-08-25T00:28:39.061Z,25.09
2022-08-25T00:31:06.336Z,24.96
2022-08-25T00:33:33.908Z,24.89
2022-08-25T00:36:00.734Z,24.86
2022-08-25T00:38:27.521Z,24.92
2022-08-25T00:40:54.951Z,24.67
2022-08-25T00:43:22.576Z,24.81
2022-08-25T00:45:49.154Z,24.88
2022-08-25T00:48:15.762Z,24.92
2022-08-25T00:50:42.313Z,24.95
2022-08-25T00:53:09.402Z,24.90
2022-08-25T00:55:40.088Z,24.99
2022-08-25T00:58:13.338Z,25.01
2022-08-25T01:00:47.735Z,24.98
2022-08-25T01:03:15.112Z,25.00
2022-08-25T01:05:43.608Z,25.04
2022-08-25T01:08:11.709Z,25.02
2022-08-25T01:10:45.263Z,24.98
2022-08-25T01:13:24.011Z,24.91
2022-08-25T01:15:55.365Z,24.88
2022-08-25T01:18:23.009Z,24.92
2022-08-25T01:20:54.839Z,24.88
2022-08-25T01:23:23.070Z,24.83
2022-08-25T01:26:09.522Z,24.82
2022-08-25T01:28:38.033Z,24.64
2022-08-25T01:31:04.805Z,24.68
2022-08-25T01:33:51.110Z,24.59
2022-08-25T01:36:19.352Z,24.32
2022-08-25T01:38:46.053Z,24.26
2022-08-25T01:41:12.765Z,24.25
2022-08-25T01:43:39.358Z,24.15
2022-08-25T01:46:05.951Z,24.15
2022-08-25T01:48:32.621Z,23.81
2022-08-25T01:50:59.350Z,23.85
2022-08-25T01:53:33.493Z,23.78
2022-08-25T01:56:09.759Z,23.95
2022-08-25T01:58:39.848Z,24.01
2022-08-25T02:01:11.495Z,24.14
2022-08-25T02:03:41.235Z,24.11
2022-08-25T02:06:12.377Z,24.23
2022-08-25T02:08:40.635Z,24.31
2022-08-25T02:11:11.031Z,24.41
2022-08-25T02:13:38.030Z,24.44
2022-08-25T02:16:04.925Z,24.43
2022-08-25T02:18:31.994Z,24.43
2022-08-25T02:20:58.659Z,24.52
2022-08-25T02:23:25.478Z,24.45
2022-08-25T02:25:52.183Z,24.29
2022-08-25T02:28:18.748Z,24.29
2022-08-25T02:30:45.895Z,24.29
2022-08-25T02:33:12.558Z,24.07
2022-08-25T02:35:40.966Z,24.01
2022-08-25T02:38:07.579Z,24.19
2022-08-25T02:40:34.525Z,24.25
2022-08-25T02:43:01.105Z,24.17
2022-08-25T02:45:28.063Z,24.29
2022-08-25T02:47:54.583Z,24.32
2022-08-25T02:50:21.137Z,24.30
2022-08-25T02:52:47.855Z,24.35
2022-08-25T02:55:14.525Z,24.35
2022-08-25T02:57:42.186Z,24.35
2022-08-25T03:00:12.824Z,24.33
2022-08-25T03:02:39.929Z,24.31
2022-08-25T03:05:07.993Z,24.31
2022-08-25T03:07:36.005Z,24.33
2022-08-25T03:10:15.372Z,24.33
2022-08-25T03:12:42.834Z,24.26
2022-08-25T03:15:12.795Z,24.25
2022-08-25T03:17:40.129Z,24.22
2022-08-25T03:20:08.066Z,24.21
2022-08-25T03:22:34.785Z,24.27
2022-08-25T03:25:02.143Z,24.21
2022-08-25T03:27:29.337Z,24.16
2022-08-25T03:29:55.968Z,24.13
2022-08-25T03:32:22.565Z,24.11
2022-08-25T03:34:49.134Z,24.07
2022-08-25T03:37:15.679Z,24.08
2022-08-25T03:39:42.276Z,24.05
2022-08-25T03:42:08.794Z,24.08
2022-08-25T03:44:35.344Z,24.04
2022-08-25T03:47:01.897Z,23.93
2022-08-25T03:49:28.437Z,23.91
2022-08-25T03:51:57.091Z,23.88
2022-08-25T03:54:26.077Z,23.85
2022-08-25T03:56:53.193Z,23.85
2022-08-25T03:59:20.000Z,23.72
2022-08-25T04:01:52.656Z,23.81
2022-08-25T04:04:21.380Z,23.81
2022-08-25T04:06:47.933Z,23.84
2022-08-25T04:09:14.509Z,23.79
2022-08-25T04:11:42.724Z,23.74
2022-08-25T04:14:09.906Z,23.56
2022-08-25T04:16:42.624Z,23.46
2022-08-25T04:19:09.818Z,23.46
2022-08-25T04:21:38.193Z,23.48
2022-08-25T04:24:06.147Z,23.39
2022-08-25T04:26:38.865Z,23.41
2022-08-25T04:29:08.424Z,23.36
2022-08-25T04:31:35.088Z,23.37
2022-08-25T04:34:03.863Z,23.40
2022-08-25T04:36:52.714Z,23.39
2022-08-25T04:39:21.094Z,23.40
2022-08-25T04:41:48.971Z,23.35
2022-08-25T04:44:17.030Z,23.33
2022-08-25T04:46:43.971Z,23.18
2022-08-25T04:49:10.507Z,23.16
2022-08-25T04:51:40.522Z,23.13
2022-08-25T04:54:10.511Z,23.16
2022-08-25T04:56:38.934Z,23.22
2022-08-25T04:59:09.078Z,23.25
2022-08-25T05:01:36.572Z,23.29
2022-08-25T05:04:05.941Z,23.08
2022-08-25T05:06:33.214Z,23.25
2022-08-25T05:09:01.056Z,23.30
2022-08-25T05:11:28.655Z,23.34
2022-08-25T05:13:57.197Z,23.41
2022-08-25T05:16:26.435Z,23.46
2022-08-25T05:18:53.684Z,23.51
2022-08-25T05:21:27.506Z,23.58
2022-08-25T05:23:58.677Z,23.53
2022-08-25T05:26:28.376Z,23.55
2022-08-25T05:28:55.602Z,23.51
2022-08-25T05:31:24.346Z,23.58
2022-08-25T05:33:52.785Z,23.60
2022-08-25T05:36:20.927Z,23.67
2022-08-25T05:38:47.964Z,23.75
2022-08-25T05:41:18.649Z,23.67
2022-08-25T05:43:48.381Z,23.71
2022-08-25T05:46:17.494Z,23.77
2022-08-25T05:48:44.238Z,23.82
2022-08-25T05:51:12.620Z,23.88
2022-08-25T05:53:42.525Z,23.95
2022-08-25T05:56:12.599Z,23.95
2022-08-25T05:58:39.991Z,23.81
2022-08-25T06:01:07.250Z,23.42
2022-08-25T06:03:33.910Z,23.74
2022-08-25T06:06:07.455Z,23.75
2022-08-25T06:08:34.027Z,23.95
2022-08-25T06:11:00.650Z,24.05
2022-08-25T06:13:28.769Z,24.15
2022-08-25T06:15:59.667Z,24.19
2022-08-25T06:18:26.322Z,24.38
2022-08-25T06:20:52.855Z,24.52
2022-08-25T06:23:19.571Z,24.58
2022-08-25T06:25:53.924Z,24.69
2022-08-25T06:28:20.979Z,24.87
2022-08-25T06:30:47.767Z,24.93
2022-08-25T06:33:15.017Z,25.15
2022-08-25T06:35:43.301Z,25.14
2022-08-25T06:38:10.901Z,25.16
2022-08-25T06:40:37.806Z,25.29
2022-08-25T06:43:04.480Z,25.43
2022-08-25T06:45:30.981Z,25.55
2022-08-25T06:47:58.440Z,25.51
2022-08-25T06:50:25.177Z,25.51
2022-08-25T06:52:51.718Z,25.44
2022-08-25T06:55:18.494Z,25.50
2022-08-25T06:57:45.020Z,25.51
2022-08-25T07:00:12.377Z,25.68
2022-08-25T07:02:39.163Z,25.81
2022-08-25T07:05:08.180Z,25.79
2022-08-25T07:07:43.041Z,25.91
2022-08-25T07:10:11.904Z,25.80
2022-08-25T07:12:39.019Z,25.97
2022-08-25T07:15:21.710Z,25.94
2022-08-25T07:17:48.897Z,25.95
2022-08-25T07:20:16.377Z,26.00
2022-08-25T07:22:43.101Z,26.16
2022-08-25T07:25:10.191Z,26.12
2022-08-25T07:27:36.895Z,26.24
2022-08-25T07:30:06.406Z,26.23
2022-08-25T07:32:33.003Z,26.24
2022-08-25T07:34:59.827Z,26.31
2022-08-25T07:37:47.627Z,26.33
2022-08-25T07:40:22.459Z,26.27
2022-08-25T07:42:51.077Z,26.17
2022-08-25T07:45:20.776Z,26.17
2022-08-25T07:47:48.111Z,26.03
2022-08-25T07:50:18.058Z,26.23
2022-08-25T07:52:44.608Z,26.28
2022-08-25T07:55:18.787Z,26.24
2022-08-25T07:57:45.503Z,26.10
2022-08-25T08:00:17.831Z,26.04
2022-08-25T08:02:47.267Z,26.02
2022-08-25T08:05:14.790Z,26.12
2022-08-25T08:07:43.145Z,26.20
2022-08-25T08:13:00.157Z,26.15
2022-08-25T08:15:29.867Z,26.33
2022-08-25T08:17:57.925Z,26.16
2022-08-25T08:20:25.188Z,26.02
2022-08-25T08:22:52.100Z,26.18
2022-08-25T08:25:24.285Z,26.27
2022-08-25T08:27:55.364Z,26.40
2022-08-25T08:30:25.992Z,26.50
2022-08-25T08:33:09.194Z,26.39
2022-08-25T08:35:37.242Z,26.74
2022-08-25T08:38:10.270Z,26.85
2022-08-25T08:40:58.970Z,26.71
2022-08-25T08:43:26.848Z,26.87
2022-08-25T08:45:58.080Z,26.87
2022-08-25T08:48:56.934Z,27.06
2022-08-25T08:51:33.446Z,27.22
2022-08-25T08:54:15.362Z,26.97
2022-08-25T08:56:48.616Z,27.02
2022-08-25T08:59:28.847Z,27.11
2022-08-25T09:02:02.541Z,26.62
2022-08-25T09:04:38.351Z,26.53
2022-08-25T09:07:13.008Z,26.64
2022-08-25T09:09:42.846Z,26.86
2022-08-25T09:12:39.055Z,26.85
2022-08-25T09:15:41.234Z,26.92
2022-08-25T09:18:26.615Z,26.85
2022-08-25T09:21:08.068Z,27.02
2022-08-25T09:24:21.985Z,27.19
2022-08-25T09:27:16.475Z,27.35
2022-08-25T09:30:10.006Z,27.42
2022-08-25T09:32:49.046Z,27.17
2022-08-25T09:35:29.907Z,27.04
2022-08-25T09:38:00.502Z,27.29
2022-08-25T09:40:30.335Z,27.22
2022-08-25T09:43:00.192Z,27.20
2022-08-25T09:45:37.861Z,27.31
2022-08-25T09:48:22.359Z,27.10
2022-08-25T09:50:52.632Z,27.24
2022-08-25T09:53:21.787Z,27.15
2022-08-25T09:56:05.935Z,27.18
2022-08-25T09:58:32.663Z,27.33
2022-08-25T10:01:05.505Z,27.71
2022-08-25T10:03:36.816Z,27.78
2022-08-25T10:06:13.426Z,27.67
2022-08-25T10:08:43.249Z,27.85
2022-08-25T10:11:15.350Z,27.79
2022-08-25T10:13:47.825Z,27.50
2022-08-25T10:16:27.034Z,28.00
2022-08-25T10:19:13.378Z,27.96
2022-08-25T10:21:42.754Z,27.86
2022-08-25T10:24:19.240Z,28.01
2022-08-25T10:27:05.994Z,28.03
2022-08-25T10:30:17.050Z,27.94
2022-08-25T10:33:20.718Z,27.83
2022-08-25T10:36:02.336Z,27.60
2022-08-25T10:38:55.968Z,27.36
2022-08-25T10:41:46.309Z,27.16
2022-08-25T10:44:40.870Z,27.43
2022-08-25T10:47:25.677Z,27.74
2022-08-25T10:50:03.863Z,27.74
2022-08-25T10:53:12.457Z,27.71
2022-08-25T10:55:48.842Z,27.97
2022-08-25T10:58:23.402Z,27.90
2022-08-25T11:01:14.944Z,28.04
2022-08-25T11:04:04.363Z,28.01
2022-08-25T11:06:54.531Z,28.00
2022-08-25T11:09:28.367Z,28.35
2022-08-25T11:12:04.261Z,28.36
2022-08-25T11:14:46.213Z,28.50
2022-08-25T11:17:18.742Z,28.38
2022-08-25T11:19:49.999Z,28.71
2022-08-25T11:22:27.234Z,28.70
2022-08-25T11:25:11.780Z,28.81
2022-08-25T11:27:49.157Z,28.86
2022-08-25T11:30:18.857Z,28.88
2022-08-25T11:32:52.009Z,28.98
2022-08-25T11:35:43.071Z,29.07
2022-08-25T11:38:15.611Z,29.12
2022-08-25T11:41:24.552Z,29.15
2022-08-25T11:44:09.644Z,29.43
2022-08-25T11:46:52.189Z,29.11
2022-08-25T11:49:43.773Z,29.41
2022-08-25T11:52:47.995Z,29.20
2022-08-25T11:55:29.646Z,29.26
2022-08-25T11:58:21.000Z,28.98
2022-08-25T12:00:47.546Z,28.82
2022-08-25T12:03:32.394Z,28.68
2022-08-25T12:06:19.089Z,29.06
2022-08-25T12:09:00.999Z,28.97
2022-08-25T12:11:46.298Z,29.07
2022-08-25T12:14:22.242Z,28.98
2022-08-25T12:16:51.717Z,29.22
2022-08-25T12:19:29.792Z,29.07
2022-08-25T12:22:19.151Z,29.24
2022-08-25T12:24:57.807Z,29.18
2022-08-25T12:27:33.548Z,28.97
2022-08-25T12:30:05.129Z,28.93
2022-08-25T12:33:06.910Z,29.43
2022-08-25T12:35:51.232Z,29.31
2022-08-25T12:38:35.024Z,29.61
2022-08-25T12:41:12.280Z,29.68
2022-08-25T12:43:45.240Z,30.16
2022-08-25T12:46:23.607Z,30.41
2022-08-25T12:48:59.225Z,30.54
2022-08-25T12:51:52.021Z,30.64
2022-08-25T12:54:58.154Z,30.65
2022-08-25T12:57:40.275Z,30.83
2022-08-25T13:03:21.120Z,31.11
2022-08-25T13:06:18.254Z,31.38
2022-08-25T13:09:12.350Z,31.66
2022-08-25T13:12:07.191Z,32.08
2022-08-25T13:14:39.311Z,31.71
2022-08-25T13:17:07.082Z,31.49
2022-08-25T13:19:37.397Z,31.94
2022-08-25T13:22:16.423Z,32.02
2022-08-25T13:24:47.599Z,32.04
2022-08-25T13:27:28.167Z,32.52
2022-08-25T13:29:58.363Z,32.85
2022-08-25T13:32:32.342Z,33.05
2022-08-25T13:35:32.411Z,32.93
2022-08-25T13:38:16.559Z,33.22
2022-08-25T13:40:44.316Z,33.92
2022-08-25T13:43:13.946Z,34.42
2022-08-25T13:45:47.687Z,35.23
2022-08-25T13:48:37.805Z,35.82
2022-08-25T13:51:31.361Z,36.27
2022-08-25T13:54:02.194Z,36.91
2022-08-25T13:56:38.713Z,37.18
2022-08-25T13:59:21.692Z,37.14
2022-08-25T14:01:50.118Z,37.52
2022-08-25T14:04:31.039Z,37.93
2022-08-25T14:07:21.664Z,38.15
2022-08-25T14:09:50.455Z,38.14
2022-08-25T14:12:34.631Z,38.49
2022-08-25T14:15:09.538Z,38.87
2022-08-25T14:17:40.673Z,38.79
2022-08-25T14:20:20.879Z,38.71
2022-08-25T14:22:54.233Z,39.00
2022-08-25T14:25:20.846Z,39.27
2022-08-25T14:28:13.632Z,39.17
2022-08-25T14:30:53.208Z,38.52
2022-08-25T14:33:24.155Z,38.71
2022-08-25T14:35:53.734Z,38.68
2022-08-25T14:38:21.939Z,38.25
2022-08-25T14:40:50.313Z,37.70
2022-08-25T14:43:17.316Z,38.16
2022-08-25T14:45:48.075Z,38.14
2022-08-25T14:48:26.529Z,38.54
2022-08-25T14:50:55.893Z,38.68
2022-08-25T14:53:22.402Z,38.71
2022-08-25T14:55:49.314Z,38.83
2022-08-25T14:58:18.044Z,39.03
2022-08-25T15:00:52.624Z,39.27
2022-08-25T15:03:38.048Z,39.59
2022-08-25T15:06:06.002Z,39.19
2022-08-25T15:08:33.459Z,39.25
2022-08-25T15:11:00.578Z,38.85
2022-08-25T15:13:27.269Z,38.43
2022-08-25T15:15:58.096Z,38.22
2022-08-25T15:18:25.077Z,38.45
2022-08-25T15:20:51.695Z,38.68
2022-08-25T15:23:19.216Z,38.76
2022-08-25T15:25:48.845Z,38.95
2022-08-25T15:28:21.798Z,38.74
2022-08-25T15:30:49.591Z,38.75
2022-08-25T15:33:16.701Z,39.13
2022-08-25T15:35:43.711Z,38.27
2022-08-25T15:38:12.432Z,38.17
2022-08-25T15:40:39.073Z,37.73
2022-08-25T15:43:06.022Z,37.44
2022-08-25T15:45:33.706Z,37.53
2022-08-25T15:48:01.029Z,37.56
2022-08-25T15:50:27.719Z,37.94
2022-08-25T15:52:54.224Z,38.01
2022-08-25T15:55:21.091Z,38.03
2022-08-25T15:57:49.738Z,37.93
2022-08-25T16:00:17.884Z,37.84
2022-08-25T16:02:45.405Z,37.59
2022-08-25T16:05:13.712Z,37.87
2022-08-25T16:07:42.850Z,37.99
2022-08-25T16:10:10.037Z,38.52
2022-08-25T16:12:37.502Z,38.34
2022-08-25T16:15:04.339Z,38.71
2022-08-25T16:17:30.815Z,38.83
2022-08-25T16:19:57.367Z,39.16
2022-08-25T16:22:24.091Z,39.53
2022-08-25T16:24:52.677Z,39.55
2022-08-25T16:27:19.864Z,39.49
2022-08-25T16:29:46.599Z,39.25
2022-08-25T16:32:14.586Z,39.16
2022-08-25T16:34:42.372Z,38.77
2022-08-25T16:37:09.264Z,38.85
2022-08-25T16:39:36.618Z,38.26
2022-08-25T16:42:06.797Z,37.99
2022-08-25T16:44:33.519Z,37.89
2022-08-25T16:47:00.054Z,37.14
2022-08-25T16:49:26.655Z,37.16
2022-08-25T16:51:57.110Z,37.02
2022-08-25T16:54:25.511Z,36.32
2022-08-25T16:56:54.792Z,35.94
2022-08-25T16:59:23.466Z,36.09
2022-08-25T17:01:50.969Z,36.16
2022-08-25T17:04:17.724Z,36.55
2022-08-25T17:06:49.534Z,36.55
2022-08-25T17:09:23.987Z,36.50
2022-08-25T17:11:51.640Z,36.45
2022-08-25T17:14:21.341Z,36.37
2022-08-25T17:16:47.969Z,36.26
2022-08-25T17:19:15.667Z,36.16
2022-08-25T17:21:45.137Z,36.05
2022-08-25T17:24:12.564Z,35.93
2022-08-25T17:26:41.928Z,35.79
2022-08-25T17:29:09.426Z,35.66
2022-08-25T17:31:36.226Z,35.54
2022-08-25T17:34:02.926Z,35.44
2022-08-25T17:36:30.958Z,35.31
2022-08-25T17:38:57.511Z,35.18
2022-08-25T17:41:24.761Z,34.99
2022-08-25T17:43:51.343Z,34.83
2022-08-25T17:46:17.946Z,34.83
2022-08-25T17:48:44.899Z,34.78
2022-08-25T17:51:12.034Z,34.68
2022-08-25T17:53:38.941Z,34.38
2022-08-25T17:56:08.989Z,34.32
2022-08-25T17:58:36.782Z,34.19
2022-08-25T18:01:05.482Z,34.01
2022-08-25T18:03:32.585Z,33.93
2022-08-25T18:05:59.224Z,33.78
2022-08-25T18:08:32.210Z,33.74
2022-08-25T18:11:03.552Z,33.65
2022-08-25T18:13:30.344Z,33.56
2022-08-25T18:15:57.434Z,33.41
2022-08-25T18:18:24.251Z,33.27
2022-08-25T18:20:51.013Z,33.20
2022-08-25T18:23:17.705Z,33.13
2022-08-25T18:25:44.399Z,33.00
2022-08-25T18:28:11.669Z,32.89
2022-08-25T18:30:38.900Z,32.82
2022-08-25T18:33:05.465Z,32.77
2022-08-25T18:35:32.670Z,32.70
2022-08-25T18:37:59.236Z,32.67
2022-08-25T18:40:26.656Z,32.55
2022-08-25T18:42:59.242Z,32.52
2022-08-25T18:45:40.245Z,32.55
2022-08-25T18:48:07.435Z,32.49
2022-08-25T18:50:36.903Z,32.46
2022-08-25T18:53:03.774Z,32.30
2022-08-25T18:55:33.118Z,32.06
2022-08-25T18:57:59.665Z,31.97
2022-08-25T19:00:29.029Z,31.73
2022-08-25T19:02:57.994Z,31.79
2022-08-25T19:05:30.087Z,31.54
2022-08-25T19:07:56.599Z,31.33
2022-08-25T19:10:24.061Z,31.02
2022-08-25T19:12:52.157Z,30.94
2022-08-25T19:15:18.678Z,30.42
2022-08-25T19:17:52.673Z,30.58
2022-08-25T19:20:21.654Z,30.38
2022-08-25T19:22:48.768Z,30.21
2022-08-25T19:25:15.751Z,30.33
2022-08-25T19:27:43.146Z,30.03
2022-08-25T19:30:11.822Z,30.02
2022-08-25T19:32:41.105Z,29.75
2022-08-25T19:35:14.990Z,29.72
2022-08-25T19:37:41.630Z,29.88
2022-08-25T19:40:09.473Z,30.02
2022-08-25T19:42:38.478Z,30.01
2022-08-25T19:45:12.027Z,29.87
2022-08-25T19:47:39.280Z,30.03
2022-08-25T19:50:07.317Z,29.83
2022-08-25T19:52:33.831Z,29.85
2022-08-25T19:55:00.829Z,29.72
2022-08-25T19:57:28.359Z,29.81
2022-08-25T20:00:15.029Z,29.94
2022-08-25T20:02:42.720Z,29.87
2022-08-25T20:05:09.438Z,30.08
2022-08-25T20:07:36.566Z,30.10
2022-08-25T20:10:06.343Z,30.41
2022-08-25T20:12:33.084Z,30.56
2022-08-25T20:15:01.803Z,30.65
2022-08-25T20:17:28.854Z,30.69
2022-08-25T20:19:58.504Z,30.81
2022-08-25T20:22:27.878Z,30.86
2022-08-25T20:25:01.122Z,30.89
2022-08-25T20:27:34.037Z,30.90
2022-08-25T20:30:02.716Z,30.94
2022-08-25T20:32:30.242Z,30.95
2022-08-25T20:34:56.747Z,30.94
2022-08-25T20:37:24.332Z,30.94
2022-08-25T20:39:51.592Z,31.06
2022-08-25T20:42:18.272Z,31.05
2022-08-25T20:44:44.811Z,31.09
2022-08-25T20:47:11.320Z,31.08
2022-08-25T20:49:38.130Z,31.07
2022-08-25T20:52:05.886Z,31.06
2022-08-25T20:54:33.918Z,30.99
2022-08-25T20:57:00.645Z,30.90
2022-08-25T20:59:29.039Z,30.90
2022-08-25T21:01:56.130Z,30.89
2022-08-25T21:04:25.488Z,30.86
2022-08-25T21:06:52.924Z,30.83
2022-08-25T21:09:22.872Z,30.79
2022-08-25T21:11:51.829Z,30.56
2022-08-25T21:14:18.904Z,30.25
2022-08-25T21:16:45.614Z,29.95
2022-08-25T21:19:26.317Z,29.83
2022-08-25T21:21:54.371Z,29.78
2022-08-25T21:24:28.164Z,29.53
2022-08-25T21:26:57.234Z,29.47
2022-08-25T21:29:28.478Z,29.54
2022-08-25T21:31:56.671Z,29.22
2022-08-25T21:34:23.145Z,29.44
2022-08-25T21:36:49.972Z,29.42
2022-08-25T21:39:17.323Z,29.48
2022-08-25T21:41:44.144Z,29.43
2022-08-25T21:44:13.282Z,29.50
2022-08-25T21:46:40.840Z,29.53
2022-08-25T21:49:07.720Z,29.57
2022-08-25T21:51:41.844Z,29.52
2022-08-25T21:54:12.684Z,29.57
2022-08-25T21:56:51.667Z,29.51
2022-08-25T21:59:21.676Z,29.58
2022-08-25T22:01:48.200Z,29.49
2022-08-25T22:04:15.348Z,29.52
2022-08-25T22:06:41.972Z,29.48
2022-08-25T22:09:12.823Z,29.49
2022-08-25T22:11:42.054Z,29.41
2022-08-25T22:14:10.267Z,29.49
2022-08-25T22:16:38.226Z,29.49
2022-08-25T22:19:06.521Z,29.56
2022-08-25T22:21:33.875Z,29.22
2022-08-25T22:24:01.015Z,29.06
2022-08-25T22:26:31.811Z,28.66
2022-08-25T22:28:59.329Z,28.63
2022-08-25T22:31:26.640Z,28.50
2022-08-25T22:33:54.028Z,28.23
2022-08-25T22:36:27.857Z,28.37
2022-08-25T22:38:55.896Z,28.04
2022-08-25T22:41:24.790Z,28.03
2022-08-25T22:43:52.933Z,28.13
2022-08-25T22:46:22.000Z,28.09
2022-08-25T22:48:50.209Z,27.99
2022-08-25T22:51:24.212Z,27.76
2022-08-25T22:53:51.414Z,27.68
2022-08-25T22:56:29.565Z,27.65
2022-08-25T22:59:02.102Z,27.62
2022-08-25T23:01:29.317Z,27.75
2022-08-25T23:03:55.946Z,28.05
2022-08-25T23:06:24.584Z,28.23
2022-08-25T23:08:53.500Z,28.40
2022-08-25T23:11:22.214Z,28.56
2022-08-25T23:13:49.262Z,28.63
2022-08-25T23:16:17.660Z,28.70
2022-08-25T23:18:44.238Z,28.83
2022-08-25T23:21:11.430Z,28.92
2022-08-25T23:23:37.986Z,28.99
2022-08-25T23:26:04.732Z,29.03
2022-08-25T23:28:31.412Z,29.08
2022-08-25T23:30:59.344Z,29.14
2022-08-25T23:33:26.450Z,29.16
2022-08-25T23:36:01.194Z,29.20
2022-08-25T23:38:29.179Z,29.16
2022-08-25T23:40:55.998Z,29.16
2022-08-25T23:43:22.675Z,29.18
2022-08-25T23:45:50.646Z,29.18
2022-08-25T23:48:18.757Z,29.16
2022-08-25T23:50:47.942Z,28.80
2022-08-25T23:53:20.781Z,28.73
2022-08-25T23:55:53.041Z,28.74
2022-08-25T23:58:20.540Z,28.87
